sensor_id;sensor_type;location;lat;lon;timestamp;P1;durP1;ratioP1;P2;durP2;ratioP2
71148;SDS011;59072;42.144;25.200;2022-12-07T00:00:53;37.00;;;18.13;;
71148;SDS011;59072;42.144;25.200;2022-12-07T00:03:19;39.47;;;17.90;;
71148;SDS011;59072;42.144;25.200;2022-12-07T00:05:44;38.05;;;19.38;;
71148;SDS011;59072;42.144;25.200;2022-12-07T00:08:10;40.92;;;19.95;;
71148;SDS011;59072;42.144;25.200;2022-12-07T00:10:35;36.90;;;18.05;;
71148;SDS011;59072;42.144;25.200;2022-12-07T00:13:01;43.42;;;20.10;;
71148;SDS011;59072;42.144;25.200;2022-12-07T00:15:26;40.58;;;20.02;;
71148;SDS011;59072;42.144;25.200;2022-12-07T00:17:51;37.33;;;19.30;;
71148;SDS011;59072;42.144;25.200;2022-12-07T00:20:17;35.47;;;17.95;;
71148;SDS011;59072;42.144;25.200;2022-12-07T00:22:42;34.67;;;18.60;;
71148;SDS011;59072;42.144;25.200;2022-12-07T00:25:08;33.85;;;18.38;;
71148;SDS011;59072;42.144;25.200;2022-12-07T00:27:33;34.70;;;17.30;;
71148;SDS011;59072;42.144;25.200;2022-12-07T00:29:59;34.70;;;17.90;;
71148;SDS011;59072;42.144;25.200;2022-12-07T00:32:24;39.08;;;18.08;;
71148;SDS011;59072;42.144;25.200;2022-12-07T00:34:49;33.58;;;17.27;;
71148;SDS011;59072;42.144;25.200;2022-12-07T00:37:15;37.67;;;16.92;;
71148;SDS011;59072;42.144;25.200;2022-12-07T00:39:40;33.75;;;17.08;;
71148;SDS011;59072;42.144;25.200;2022-12-07T00:42:05;35.13;;;17.20;;
71148;SDS011;59072;42.144;25.200;2022-12-07T00:44:31;37.88;;;18.40;;
71148;SDS011;59072;42.144;25.200;2022-12-07T00:46:56;36.03;;;17.65;;
71148;SDS011;59072;42.144;25.200;2022-12-07T00:49:22;31.35;;;16.42;;
71148;SDS011;59072;42.144;25.200;2022-12-07T00:51:48;30.08;;;15.27;;
71148;SDS011;59072;42.144;25.200;2022-12-07T00:54:14;35.40;;;16.10;;
71148;SDS011;59072;42.144;25.200;2022-12-07T00:56:39;34.10;;;17.40;;
71148;SDS011;59072;42.144;25.200;2022-12-07T00:59:04;34.22;;;16.42;;
71148;SDS011;59072;42.144;25.200;2022-12-07T01:01:31;32.10;;;15.68;;
71148;SDS011;59072;42.144;25.200;2022-12-07T01:03:58;32.88;;;15.77;;
71148;SDS011;59072;42.144;25.200;2022-12-07T01:06:26;32.25;;;16.42;;
71148;SDS011;59072;42.144;25.200;2022-12-07T01:08:52;34.95;;;17.00;;
71148;SDS011;59072;42.144;25.200;2022-12-07T01:11:19;30.38;;;14.55;;
71148;SDS011;59072;42.144;25.200;2022-12-07T01:13:45;32.63;;;16.27;;
71148;SDS011;59072;42.144;25.200;2022-12-07T01:16:12;34.58;;;16.20;;
71148;SDS011;59072;42.144;25.200;2022-12-07T01:18:40;34.03;;;17.15;;
71148;SDS011;59072;42.144;25.200;2022-12-07T01:21:08;34.63;;;16.75;;
71148;SDS011;59072;42.144;25.200;2022-12-07T01:23:34;41.20;;;20.15;;
71148;SDS011;59072;42.144;25.200;2022-12-07T01:26:02;37.38;;;17.92;;
71148;SDS011;59072;42.144;25.200;2022-12-07T01:28:30;37.53;;;18.00;;
71148;SDS011;59072;42.144;25.200;2022-12-07T01:30:59;36.55;;;18.30;;
71148;SDS011;59072;42.144;25.200;2022-12-07T01:33:30;41.22;;;19.70;;
71148;SDS011;59072;42.144;25.200;2022-12-07T01:36:02;36.08;;;18.42;;
71148;SDS011;59072;42.144;25.200;2022-12-07T01:38:32;44.65;;;20.45;;
71148;SDS011;59072;42.144;25.200;2022-12-07T01:40:58;44.03;;;19.88;;
71148;SDS011;59072;42.144;25.200;2022-12-07T01:43:26;40.67;;;19.63;;
71148;SDS011;59072;42.144;25.200;2022-12-07T01:45:53;46.55;;;20.52;;
71148;SDS011;59072;42.144;25.200;2022-12-07T01:48:21;42.38;;;21.38;;
71148;SDS011;59072;42.144;25.200;2022-12-07T01:50:50;43.13;;;22.38;;
71148;SDS011;59072;42.144;25.200;2022-12-07T01:53:19;45.22;;;21.65;;
71148;SDS011;59072;42.144;25.200;2022-12-07T01:55:49;39.97;;;20.67;;
71148;SDS011;59072;42.144;25.200;2022-12-07T01:58:17;46.50;;;21.95;;
71148;SDS011;59072;42.144;25.200;2022-12-07T02:00:43;45.78;;;23.70;;
71148;SDS011;59072;42.144;25.200;2022-12-07T02:03:16;50.42;;;23.63;;
71148;SDS011;59072;42.144;25.200;2022-12-07T02:05:46;47.83;;;24.27;;
71148;SDS011;59072;42.144;25.200;2022-12-07T02:08:13;44.38;;;22.90;;
71148;SDS011;59072;42.144;25.200;2022-12-07T02:10:39;51.08;;;23.48;;
71148;SDS011;59072;42.144;25.200;2022-12-07T02:13:06;44.75;;;23.55;;
71148;SDS011;59072;42.144;25.200;2022-12-07T02:18:55;46.92;;;22.75;;
71148;SDS011;59072;42.144;25.200;2022-12-07T02:29:53;55.53;;;26.00;;
71148;SDS011;59072;42.144;25.200;2022-12-07T02:35:07;57.50;;;26.88;;
71148;SDS011;59072;42.144;25.200;2022-12-07T02:43:00;55.58;;;27.75;;
71148;SDS011;59072;42.144;25.200;2022-12-07T02:45:32;60.13;;;28.67;;
71148;SDS011;59072;42.144;25.200;2022-12-07T02:48:00;55.15;;;27.65;;
71148;SDS011;59072;42.144;25.200;2022-12-07T02:50:28;58.20;;;27.95;;
71148;SDS011;59072;42.144;25.200;2022-12-07T02:52:54;52.70;;;26.70;;
71148;SDS011;59072;42.144;25.200;2022-12-07T02:55:21;55.20;;;27.13;;
71148;SDS011;59072;42.144;25.200;2022-12-07T03:00:39;56.05;;;27.15;;
71148;SDS011;59072;42.144;25.200;2022-12-07T03:03:17;59.40;;;27.00;;
71148;SDS011;59072;42.144;25.200;2022-12-07T03:11:06;54.45;;;26.50;;
71148;SDS011;59072;42.144;25.200;2022-12-07T03:16:45;53.55;;;27.00;;
71148;SDS011;59072;42.144;25.200;2022-12-07T03:19:20;54.90;;;26.60;;
71148;SDS011;59072;42.144;25.200;2022-12-07T03:21:52;52.65;;;27.35;;
71148;SDS011;59072;42.144;25.200;2022-12-07T03:24:22;56.22;;;28.73;;
71148;SDS011;59072;42.144;25.200;2022-12-07T03:26:52;56.63;;;27.55;;
71148;SDS011;59072;42.144;25.200;2022-12-07T03:29:31;54.95;;;25.85;;
71148;SDS011;59072;42.144;25.200;2022-12-07T03:32:14;57.05;;;26.08;;
71148;SDS011;59072;42.144;25.200;2022-12-07T03:34:50;53.40;;;26.38;;
71148;SDS011;59072;42.144;25.200;2022-12-07T03:37:40;54.00;;;25.83;;
71148;SDS011;59072;42.144;25.200;2022-12-07T03:42:49;56.55;;;26.58;;
71148;SDS011;59072;42.144;25.200;2022-12-07T03:45:16;53.30;;;27.27;;
71148;SDS011;59072;42.144;25.200;2022-12-07T03:50:22;56.28;;;27.55;;
71148;SDS011;59072;42.144;25.200;2022-12-07T03:53:05;53.15;;;26.17;;
71148;SDS011;59072;42.144;25.200;2022-12-07T03:55:39;55.92;;;27.52;;
71148;SDS011;59072;42.144;25.200;2022-12-07T03:58:09;56.38;;;25.40;;
71148;SDS011;59072;42.144;25.200;2022-12-07T04:00:37;50.38;;;26.05;;
71148;SDS011;59072;42.144;25.200;2022-12-07T04:03:03;58.28;;;27.58;;
71148;SDS011;59072;42.144;25.200;2022-12-07T04:05:29;55.40;;;26.20;;
71148;SDS011;59072;42.144;25.200;2022-12-07T04:07:54;53.83;;;26.60;;
71148;SDS011;59072;42.144;25.200;2022-12-07T04:10:19;49.97;;;26.00;;
71148;SDS011;59072;42.144;25.200;2022-12-07T04:12:45;51.72;;;25.77;;
71148;SDS011;59072;42.144;25.200;2022-12-07T04:15:10;48.10;;;24.45;;
71148;SDS011;59072;42.144;25.200;2022-12-07T04:17:37;53.30;;;25.55;;
71148;SDS011;59072;42.144;25.200;2022-12-07T04:20:03;55.22;;;26.10;;
71148;SDS011;59072;42.144;25.200;2022-12-07T04:22:29;53.20;;;26.02;;
71148;SDS011;59072;42.144;25.200;2022-12-07T04:24:55;47.40;;;24.55;;
71148;SDS011;59072;42.144;25.200;2022-12-07T04:27:20;48.72;;;23.85;;
71148;SDS011;59072;42.144;25.200;2022-12-07T04:29:46;47.50;;;24.63;;
71148;SDS011;59072;42.144;25.200;2022-12-07T04:32:11;46.03;;;24.17;;
71148;SDS011;59072;42.144;25.200;2022-12-07T04:34:37;48.63;;;23.58;;
71148;SDS011;59072;42.144;25.200;2022-12-07T04:37:02;45.13;;;23.15;;
71148;SDS011;59072;42.144;25.200;2022-12-07T04:39:28;48.70;;;23.63;;
71148;SDS011;59072;42.144;25.200;2022-12-07T04:41:56;44.08;;;22.45;;
71148;SDS011;59072;42.144;25.200;2022-12-07T04:44:22;47.50;;;22.70;;
71148;SDS011;59072;42.144;25.200;2022-12-07T04:46:49;49.60;;;23.48;;
71148;SDS011;59072;42.144;25.200;2022-12-07T04:49:15;44.97;;;21.77;;
71148;SDS011;59072;42.144;25.200;2022-12-07T04:51:41;44.08;;;21.92;;
71148;SDS011;59072;42.144;25.200;2022-12-07T04:54:07;43.63;;;21.55;;
71148;SDS011;59072;42.144;25.200;2022-12-07T04:56:32;45.22;;;22.80;;
71148;SDS011;59072;42.144;25.200;2022-12-07T04:59:00;46.53;;;22.02;;
71148;SDS011;59072;42.144;25.200;2022-12-07T05:01:25;42.67;;;22.38;;
71148;SDS011;59072;42.144;25.200;2022-12-07T05:03:51;46.90;;;21.73;;
71148;SDS011;59072;42.144;25.200;2022-12-07T05:06:16;49.63;;;23.38;;
71148;SDS011;59072;42.144;25.200;2022-12-07T05:08:42;45.70;;;22.13;;
71148;SDS011;59072;42.144;25.200;2022-12-07T05:11:08;47.45;;;21.80;;
71148;SDS011;59072;42.144;25.200;2022-12-07T05:13:55;47.30;;;22.60;;
71148;SDS011;59072;42.144;25.200;2022-12-07T05:16:20;41.45;;;22.23;;
71148;SDS011;59072;42.144;25.200;2022-12-07T05:18:46;40.85;;;21.48;;
71148;SDS011;59072;42.144;25.200;2022-12-07T05:21:11;42.60;;;20.80;;
71148;SDS011;59072;42.144;25.200;2022-12-07T05:23:36;43.53;;;20.75;;
71148;SDS011;59072;42.144;25.200;2022-12-07T05:26:02;44.63;;;23.45;;
71148;SDS011;59072;42.144;25.200;2022-12-07T05:28:27;45.38;;;23.35;;
71148;SDS011;59072;42.144;25.200;2022-12-07T05:30:53;43.90;;;22.65;;
71148;SDS011;59072;42.144;25.200;2022-12-07T05:33:18;45.80;;;22.90;;
71148;SDS011;59072;42.144;25.200;2022-12-07T05:35:43;51.05;;;26.67;;
71148;SDS011;59072;42.144;25.200;2022-12-07T05:38:09;41.65;;;21.20;;
71148;SDS011;59072;42.144;25.200;2022-12-07T05:40:34;42.97;;;21.88;;
71148;SDS011;59072;42.144;25.200;2022-12-07T05:43:02;47.37;;;23.00;;
71148;SDS011;59072;42.144;25.200;2022-12-07T05:45:27;52.60;;;24.35;;
71148;SDS011;59072;42.144;25.200;2022-12-07T05:47:52;53.63;;;24.30;;
71148;SDS011;59072;42.144;25.200;2022-12-07T05:50:18;51.28;;;23.70;;
71148;SDS011;59072;42.144;25.200;2022-12-07T05:52:43;44.88;;;24.80;;
71148;SDS011;59072;42.144;25.200;2022-12-07T05:55:09;44.38;;;23.55;;
71148;SDS011;59072;42.144;25.200;2022-12-07T05:57:34;45.35;;;23.58;;
71148;SDS011;59072;42.144;25.200;2022-12-07T06:00:00;45.00;;;21.48;;
71148;SDS011;59072;42.144;25.200;2022-12-07T06:02:28;41.72;;;21.88;;
71148;SDS011;59072;42.144;25.200;2022-12-07T06:04:54;43.30;;;21.55;;
71148;SDS011;59072;42.144;25.200;2022-12-07T06:07:19;46.30;;;22.00;;
71148;SDS011;59072;42.144;25.200;2022-12-07T06:09:44;44.28;;;23.75;;
71148;SDS011;59072;42.144;25.200;2022-12-07T06:12:10;46.40;;;21.02;;
71148;SDS011;59072;42.144;25.200;2022-12-07T06:14:56;41.17;;;22.55;;
71148;SDS011;59072;42.144;25.200;2022-12-07T06:17:21;44.53;;;21.77;;
71148;SDS011;59072;42.144;25.200;2022-12-07T06:19:47;41.67;;;21.92;;
71148;SDS011;59072;42.144;25.200;2022-12-07T06:22:12;43.25;;;22.90;;
71148;SDS011;59072;42.144;25.200;2022-12-07T06:24:38;42.65;;;23.23;;
71148;SDS011;59072;42.144;25.200;2022-12-07T06:27:04;46.25;;;23.73;;
71148;SDS011;59072;42.144;25.200;2022-12-07T06:29:30;41.40;;;21.38;;
71148;SDS011;59072;42.144;25.200;2022-12-07T06:31:55;44.90;;;19.80;;
71148;SDS011;59072;42.144;25.200;2022-12-07T06:34:21;41.10;;;22.20;;
71148;SDS011;59072;42.144;25.200;2022-12-07T06:36:48;44.33;;;21.90;;
71148;SDS011;59072;42.144;25.200;2022-12-07T06:39:17;43.83;;;22.63;;
71148;SDS011;59072;42.144;25.200;2022-12-07T06:41:43;42.38;;;21.27;;
71148;SDS011;59072;42.144;25.200;2022-12-07T06:44:09;48.17;;;22.77;;
71148;SDS011;59072;42.144;25.200;2022-12-07T06:46:34;48.45;;;22.45;;
71148;SDS011;59072;42.144;25.200;2022-12-07T06:49:03;47.78;;;22.35;;
71148;SDS011;59072;42.144;25.200;2022-12-07T06:51:29;45.72;;;23.38;;
71148;SDS011;59072;42.144;25.200;2022-12-07T06:53:55;50.15;;;23.92;;
71148;SDS011;59072;42.144;25.200;2022-12-07T06:56:21;45.67;;;22.92;;
71148;SDS011;59072;42.144;25.200;2022-12-07T06:58:47;44.55;;;23.13;;
71148;SDS011;59072;42.144;25.200;2022-12-07T07:01:13;45.17;;;24.40;;
71148;SDS011;59072;42.144;25.200;2022-12-07T07:03:41;47.45;;;24.75;;
71148;SDS011;59072;42.144;25.200;2022-12-07T07:06:08;49.25;;;24.05;;
71148;SDS011;59072;42.144;25.200;2022-12-07T07:08:34;48.05;;;25.15;;
71148;SDS011;59072;42.144;25.200;2022-12-07T07:11:00;50.83;;;26.48;;
71148;SDS011;59072;42.144;25.200;2022-12-07T07:13:26;49.80;;;25.10;;
71148;SDS011;59072;42.144;25.200;2022-12-07T07:15:52;45.63;;;24.85;;
71148;SDS011;59072;42.144;25.200;2022-12-07T07:18:17;50.58;;;26.23;;
71148;SDS011;59072;42.144;25.200;2022-12-07T07:20:43;55.92;;;28.20;;
71148;SDS011;59072;42.144;25.200;2022-12-07T07:23:08;47.47;;;23.95;;
71148;SDS011;59072;42.144;25.200;2022-12-07T07:25:34;48.72;;;26.90;;
71148;SDS011;59072;42.144;25.200;2022-12-07T07:27:59;51.92;;;27.23;;
71148;SDS011;59072;42.144;25.200;2022-12-07T07:30:25;75.05;;;37.83;;
71148;SDS011;59072;42.144;25.200;2022-12-07T07:32:51;56.95;;;26.33;;
71148;SDS011;59072;42.144;25.200;2022-12-07T07:35:20;48.80;;;25.17;;
71148;SDS011;59072;42.144;25.200;2022-12-07T07:37:46;51.00;;;25.08;;
71148;SDS011;59072;42.144;25.200;2022-12-07T07:40:11;54.10;;;27.17;;
71148;SDS011;59072;42.144;25.200;2022-12-07T07:42:37;94.95;;;38.08;;
71148;SDS011;59072;42.144;25.200;2022-12-07T07:45:02;60.45;;;30.75;;
71148;SDS011;59072;42.144;25.200;2022-12-07T07:47:28;54.47;;;27.52;;
71148;SDS011;59072;42.144;25.200;2022-12-07T07:49:54;76.25;;;36.10;;
71148;SDS011;59072;42.144;25.200;2022-12-07T07:52:19;77.07;;;33.30;;
71148;SDS011;59072;42.144;25.200;2022-12-07T07:54:44;79.03;;;34.08;;
71148;SDS011;59072;42.144;25.200;2022-12-07T07:57:10;110.80;;;44.17;;
71148;SDS011;59072;42.144;25.200;2022-12-07T07:59:35;99.10;;;38.35;;
71148;SDS011;59072;42.144;25.200;2022-12-07T08:02:01;92.80;;;39.80;;
71148;SDS011;59072;42.144;25.200;2022-12-07T08:04:26;58.13;;;29.00;;
71148;SDS011;59072;42.144;25.200;2022-12-07T08:06:52;60.15;;;30.27;;
71148;SDS011;59072;42.144;25.200;2022-12-07T08:09:17;53.78;;;28.65;;
71148;SDS011;59072;42.144;25.200;2022-12-07T08:11:42;64.10;;;31.05;;
71148;SDS011;59072;42.144;25.200;2022-12-07T08:14:09;53.03;;;27.30;;
71148;SDS011;59072;42.144;25.200;2022-12-07T08:16:35;48.28;;;25.92;;
71148;SDS011;59072;42.144;25.200;2022-12-07T08:19:01;46.65;;;25.00;;
71148;SDS011;59072;42.144;25.200;2022-12-07T08:21:26;56.65;;;28.13;;
71148;SDS011;59072;42.144;25.200;2022-12-07T08:23:52;56.50;;;26.48;;
71148;SDS011;59072;42.144;25.200;2022-12-07T08:26:17;48.55;;;26.33;;
71148;SDS011;59072;42.144;25.200;2022-12-07T08:28:42;43.25;;;24.50;;
71148;SDS011;59072;42.144;25.200;2022-12-07T08:31:11;47.17;;;26.05;;
71148;SDS011;59072;42.144;25.200;2022-12-07T08:33:38;53.75;;;29.50;;
71148;SDS011;59072;42.144;25.200;2022-12-07T08:36:05;50.70;;;25.77;;
71148;SDS011;59072;42.144;25.200;2022-12-07T08:38:39;50.95;;;29.73;;
71148;SDS011;59072;42.144;25.200;2022-12-07T08:41:06;48.17;;;26.37;;
71148;SDS011;59072;42.144;25.200;2022-12-07T08:43:33;51.33;;;26.02;;
71148;SDS011;59072;42.144;25.200;2022-12-07T08:48:30;79.60;;;40.33;;
71148;SDS011;59072;42.144;25.200;2022-12-07T08:50:57;50.88;;;25.88;;
71148;SDS011;59072;42.144;25.200;2022-12-07T08:53:23;49.85;;;25.85;;
71148;SDS011;59072;42.144;25.200;2022-12-07T08:55:50;48.28;;;25.70;;
71148;SDS011;59072;42.144;25.200;2022-12-07T08:58:16;60.45;;;31.88;;
71148;SDS011;59072;42.144;25.200;2022-12-07T09:00:41;48.40;;;24.75;;
71148;SDS011;59072;42.144;25.200;2022-12-07T09:03:07;39.00;;;21.88;;
71148;SDS011;59072;42.144;25.200;2022-12-07T09:05:32;45.15;;;22.73;;
71148;SDS011;59072;42.144;25.200;2022-12-07T09:07:59;39.60;;;20.55;;
71148;SDS011;59072;42.144;25.200;2022-12-07T09:10:27;39.22;;;21.17;;
71148;SDS011;59072;42.144;25.200;2022-12-07T09:12:54;39.00;;;21.08;;
71148;SDS011;59072;42.144;25.200;2022-12-07T09:15:19;37.92;;;19.10;;
71148;SDS011;59072;42.144;25.200;2022-12-07T09:17:45;37.25;;;19.33;;
71148;SDS011;59072;42.144;25.200;2022-12-07T09:20:10;37.58;;;20.92;;
71148;SDS011;59072;42.144;25.200;2022-12-07T09:22:37;34.75;;;19.15;;
71148;SDS011;59072;42.144;25.200;2022-12-07T09:25:02;37.90;;;19.67;;
71148;SDS011;59072;42.144;25.200;2022-12-07T09:27:29;36.58;;;20.60;;
71148;SDS011;59072;42.144;25.200;2022-12-07T09:29:55;36.88;;;19.77;;
71148;SDS011;59072;42.144;25.200;2022-12-07T09:32:21;33.90;;;18.63;;
71148;SDS011;59072;42.144;25.200;2022-12-07T09:34:47;38.67;;;19.45;;
71148;SDS011;59072;42.144;25.200;2022-12-07T09:37:12;34.63;;;21.23;;
71148;SDS011;59072;42.144;25.200;2022-12-07T09:39:38;42.20;;;23.40;;
71148;SDS011;59072;42.144;25.200;2022-12-07T09:42:04;38.10;;;25.27;;
71148;SDS011;59072;42.144;25.200;2022-12-07T09:44:31;38.55;;;19.75;;
71148;SDS011;59072;42.144;25.200;2022-12-07T09:46:57;34.40;;;19.30;;
71148;SDS011;59072;42.144;25.200;2022-12-07T09:49:24;33.20;;;18.52;;
71148;SDS011;59072;42.144;25.200;2022-12-07T09:52:27;35.00;;;18.98;;
71148;SDS011;59072;42.144;25.200;2022-12-07T09:54:49;36.78;;;18.40;;
71148;SDS011;59072;42.144;25.200;2022-12-07T09:57:16;30.67;;;16.63;;
71148;SDS011;59072;42.144;25.200;2022-12-07T09:59:43;29.10;;;16.10;;
71148;SDS011;59072;42.144;25.200;2022-12-07T10:05:07;33.22;;;19.77;;
71148;SDS011;59072;42.144;25.200;2022-12-07T10:07:38;33.72;;;17.80;;
71148;SDS011;59072;42.144;25.200;2022-12-07T10:10:06;40.60;;;22.90;;
71148;SDS011;59072;42.144;25.200;2022-12-07T10:13:33;36.10;;;17.67;;
71148;SDS011;59072;42.144;25.200;2022-12-07T10:20:59;30.25;;;15.13;;
71148;SDS011;59072;42.144;25.200;2022-12-07T10:23:39;30.83;;;14.57;;
71148;SDS011;59072;42.144;25.200;2022-12-07T10:28:53;26.33;;;14.60;;
71148;SDS011;59072;42.144;25.200;2022-12-07T10:31:21;26.92;;;14.60;;
71148;SDS011;59072;42.144;25.200;2022-12-07T10:41:27;24.23;;;12.65;;
71148;SDS011;59072;42.144;25.200;2022-12-07T10:43:53;22.77;;;12.57;;
71148;SDS011;59072;42.144;25.200;2022-12-07T10:46:26;41.28;;;24.10;;
71148;SDS011;59072;42.144;25.200;2022-12-07T10:54:31;44.55;;;24.60;;
71148;SDS011;59072;42.144;25.200;2022-12-07T10:57:07;43.25;;;21.60;;
71148;SDS011;59072;42.144;25.200;2022-12-07T11:02:54;27.25;;;13.50;;
71148;SDS011;59072;42.144;25.200;2022-12-07T11:05:50;26.88;;;14.27;;
71148;SDS011;59072;42.144;25.200;2022-12-07T11:14:02;25.92;;;12.32;;
71148;SDS011;59072;42.144;25.200;2022-12-07T11:16:42;24.17;;;12.93;;
71148;SDS011;59072;42.144;25.200;2022-12-07T11:22:10;26.08;;;12.73;;
71148;SDS011;59072;42.144;25.200;2022-12-07T11:35:56;23.30;;;12.00;;
71148;SDS011;59072;42.144;25.200;2022-12-07T11:38:37;30.05;;;15.05;;
71148;SDS011;59072;42.144;25.200;2022-12-07T11:41:08;22.13;;;12.27;;
71148;SDS011;59072;42.144;25.200;2022-12-07T11:49:15;21.85;;;12.65;;
71148;SDS011;59072;42.144;25.200;2022-12-07T11:51:45;27.08;;;13.95;;
71148;SDS011;59072;42.144;25.200;2022-12-07T11:54:24;24.38;;;13.57;;
71148;SDS011;59072;42.144;25.200;2022-12-07T11:56:59;33.28;;;16.77;;
71148;SDS011;59072;42.144;25.200;2022-12-07T11:59:31;29.50;;;14.68;;
71148;SDS011;59072;42.144;25.200;2022-12-07T12:02:07;25.65;;;14.07;;
71148;SDS011;59072;42.144;25.200;2022-12-07T12:05:40;26.50;;;13.65;;
71148;SDS011;59072;42.144;25.200;2022-12-07T12:07:37;27.77;;;13.73;;
71148;SDS011;59072;42.144;25.200;2022-12-07T12:10:05;27.95;;;14.30;;
71148;SDS011;59072;42.144;25.200;2022-12-07T12:21:16;27.85;;;13.60;;
71148;SDS011;59072;42.144;25.200;2022-12-07T12:24:04;25.90;;;13.73;;
71148;SDS011;59072;42.144;25.200;2022-12-07T12:26:49;29.13;;;13.60;;
71148;SDS011;59072;42.144;25.200;2022-12-07T12:29:28;28.95;;;14.60;;
71148;SDS011;59072;42.144;25.200;2022-12-07T12:32:04;29.05;;;14.02;;
71148;SDS011;59072;42.144;25.200;2022-12-07T12:34:33;28.27;;;15.02;;
71148;SDS011;59072;42.144;25.200;2022-12-07T12:45:29;34.47;;;16.48;;
71148;SDS011;59072;42.144;25.200;2022-12-07T12:50:49;30.15;;;15.85;;
71148;SDS011;59072;42.144;25.200;2022-12-07T12:53:53;38.10;;;17.65;;
71148;SDS011;59072;42.144;25.200;2022-12-07T12:56:38;36.13;;;17.05;;
71148;SDS011;59072;42.144;25.200;2022-12-07T13:01:46;32.10;;;17.27;;
71148;SDS011;59072;42.144;25.200;2022-12-07T13:04:25;34.05;;;16.98;;
71148;SDS011;59072;42.144;25.200;2022-12-07T13:06:54;34.10;;;16.67;;
71148;SDS011;59072;42.144;25.200;2022-12-07T13:09:21;33.85;;;17.70;;
71148;SDS011;59072;42.144;25.200;2022-12-07T13:11:54;31.05;;;16.83;;
71148;SDS011;59072;42.144;25.200;2022-12-07T13:14:41;33.35;;;16.55;;
71148;SDS011;59072;42.144;25.200;2022-12-07T13:20:00;36.20;;;16.73;;
71148;SDS011;59072;42.144;25.200;2022-12-07T13:25:09;35.40;;;16.83;;
71148;SDS011;59072;42.144;25.200;2022-12-07T13:27:46;37.92;;;17.55;;
71148;SDS011;59072;42.144;25.200;2022-12-07T13:30:20;37.95;;;18.38;;
71148;SDS011;59072;42.144;25.200;2022-12-07T13:32:54;36.05;;;17.27;;
71148;SDS011;59072;42.144;25.200;2022-12-07T13:38:22;32.28;;;16.63;;
71148;SDS011;59072;42.144;25.200;2022-12-07T13:41:01;31.42;;;16.75;;
71148;SDS011;59072;42.144;25.200;2022-12-07T13:43:29;40.47;;;19.27;;
71148;SDS011;59072;42.144;25.200;2022-12-07T13:45:58;33.25;;;19.40;;
71148;SDS011;59072;42.144;25.200;2022-12-07T13:48:36;33.80;;;16.70;;
71148;SDS011;59072;42.144;25.200;2022-12-07T13:51:16;33.17;;;17.70;;
71148;SDS011;59072;42.144;25.200;2022-12-07T13:53:54;32.47;;;16.88;;
71148;SDS011;59072;42.144;25.200;2022-12-07T13:56:31;34.97;;;16.63;;
71148;SDS011;59072;42.144;25.200;2022-12-07T13:58:59;36.60;;;16.75;;
71148;SDS011;59072;42.144;25.200;2022-12-07T14:01:25;33.10;;;17.08;;
71148;SDS011;59072;42.144;25.200;2022-12-07T14:03:51;50.67;;;25.90;;
71148;SDS011;59072;42.144;25.200;2022-12-07T14:08:42;120.25;;;53.83;;
71148;SDS011;59072;42.144;25.200;2022-12-07T14:11:16;46.40;;;22.15;;
71148;SDS011;59072;42.144;25.200;2022-12-07T14:13:45;86.63;;;42.85;;
71148;SDS011;59072;42.144;25.200;2022-12-07T14:16:39;38.78;;;20.10;;
71148;SDS011;59072;42.144;25.200;2022-12-07T14:19:06;98.03;;;49.70;;
71148;SDS011;59072;42.144;25.200;2022-12-07T14:22:06;43.30;;;22.25;;
71148;SDS011;59072;42.144;25.200;2022-12-07T14:24:41;42.97;;;21.05;;
71148;SDS011;59072;42.144;25.200;2022-12-07T14:27:16;39.95;;;20.15;;
71148;SDS011;59072;42.144;25.200;2022-12-07T14:29:43;37.53;;;20.05;;
71148;SDS011;59072;42.144;25.200;2022-12-07T14:32:27;37.78;;;17.88;;
71148;SDS011;59072;42.144;25.200;2022-12-07T14:37:20;36.83;;;18.98;;
71148;SDS011;59072;42.144;25.200;2022-12-07T14:39:45;44.25;;;20.50;;
71148;SDS011;59072;42.144;25.200;2022-12-07T14:42:10;41.70;;;21.13;;
71148;SDS011;59072;42.144;25.200;2022-12-07T14:44:36;49.33;;;21.42;;
71148;SDS011;59072;42.144;25.200;2022-12-07T14:47:02;68.95;;;33.92;;
71148;SDS011;59072;42.144;25.200;2022-12-07T14:49:27;74.97;;;36.45;;
71148;SDS011;59072;42.144;25.200;2022-12-07T14:51:52;59.10;;;31.80;;
71148;SDS011;59072;42.144;25.200;2022-12-07T14:54:19;51.15;;;25.48;;
71148;SDS011;59072;42.144;25.200;2022-12-07T14:56:45;48.80;;;24.02;;
71148;SDS011;59072;42.144;25.200;2022-12-07T14:59:15;45.17;;;24.02;;
71148;SDS011;59072;42.144;25.200;2022-12-07T15:01:41;53.05;;;24.90;;
71148;SDS011;59072;42.144;25.200;2022-12-07T15:04:06;52.13;;;27.23;;
71148;SDS011;59072;42.144;25.200;2022-12-07T15:06:32;60.13;;;26.88;;
71148;SDS011;59072;42.144;25.200;2022-12-07T15:08:58;63.28;;;27.50;;
71148;SDS011;59072;42.144;25.200;2022-12-07T15:11:23;62.28;;;29.60;;
71148;SDS011;59072;42.144;25.200;2022-12-07T15:13:48;70.45;;;30.55;;
71148;SDS011;59072;42.144;25.200;2022-12-07T15:16:32;62.05;;;28.98;;
71148;SDS011;59072;42.144;25.200;2022-12-07T15:18:58;60.17;;;28.83;;
71148;SDS011;59072;42.144;25.200;2022-12-07T15:21:23;54.58;;;26.92;;
71148;SDS011;59072;42.144;25.200;2022-12-07T15:23:49;62.38;;;29.02;;
71148;SDS011;59072;42.144;25.200;2022-12-07T15:26:14;63.30;;;31.20;;
71148;SDS011;59072;42.144;25.200;2022-12-07T15:28:40;66.75;;;33.75;;
71148;SDS011;59072;42.144;25.200;2022-12-07T15:31:13;64.05;;;32.65;;
71148;SDS011;59072;42.144;25.200;2022-12-07T15:33:40;62.88;;;31.17;;
71148;SDS011;59072;42.144;25.200;2022-12-07T15:36:05;64.55;;;33.72;;
71148;SDS011;59072;42.144;25.200;2022-12-07T15:38:31;66.82;;;35.08;;
71148;SDS011;59072;42.144;25.200;2022-12-07T15:40:56;64.13;;;34.88;;
71148;SDS011;59072;42.144;25.200;2022-12-07T15:43:22;83.93;;;40.55;;
71148;SDS011;59072;42.144;25.200;2022-12-07T15:46:06;79.78;;;43.60;;
71148;SDS011;59072;42.144;25.200;2022-12-07T15:48:32;85.90;;;43.70;;
71148;SDS011;59072;42.144;25.200;2022-12-07T15:51:04;105.25;;;48.83;;
71148;SDS011;59072;42.144;25.200;2022-12-07T15:53:31;104.82;;;48.55;;
71148;SDS011;59072;42.144;25.200;2022-12-07T15:55:56;103.47;;;48.83;;
71148;SDS011;59072;42.144;25.200;2022-12-07T15:58:22;100.45;;;49.55;;
71148;SDS011;59072;42.144;25.200;2022-12-07T16:00:47;104.50;;;49.38;;
71148;SDS011;59072;42.144;25.200;2022-12-07T16:03:13;101.80;;;50.17;;
71148;SDS011;59072;42.144;25.200;2022-12-07T16:05:38;110.85;;;53.90;;
71148;SDS011;59072;42.144;25.200;2022-12-07T16:08:04;111.10;;;57.42;;
71148;SDS011;59072;42.144;25.200;2022-12-07T16:10:30;101.78;;;54.95;;
71148;SDS011;59072;42.144;25.200;2022-12-07T16:12:55;95.45;;;48.33;;
71148;SDS011;59072;42.144;25.200;2022-12-07T16:15:20;94.00;;;46.53;;
71148;SDS011;59072;42.144;25.200;2022-12-07T16:17:46;84.90;;;44.47;;
71148;SDS011;59072;42.144;25.200;2022-12-07T16:20:11;94.93;;;50.25;;
71148;SDS011;59072;42.144;25.200;2022-12-07T16:22:37;106.68;;;48.30;;
71148;SDS011;59072;42.144;25.200;2022-12-07T16:25:02;113.40;;;51.03;;